sensor_id;sensor_type;location;lat;lon;timestamp;temperature;humidity
38500;DHT22;24269;51.894;4.622;2022-08-06T00:01:51;13.70;99.90
38500;DHT22;24269;51.894;4.622;2022-08-06T00:04:17;13.70;99.90
38500;DHT22;24269;51.894;4.622;2022-08-06T00:06:43;13.60;99.90
38500;DHT22;24269;51.894;4.622;2022-08-06T00:09:09;13.60;99.90
38500;DHT22;24269;51.894;4.622;2022-08-06T00:11:36;13.60;99.90
38500;DHT22;24269;51.894;4.622;2022-08-06T00:14:02;13.60;99.90
38500;DHT22;24269;51.894;4.622;2022-08-06T00:16:27;13.60;99.90
38500;DHT22;24269;51.894;4.622;2022-08-06T00:18:53;13.60;99.90
38500;DHT22;24269;51.894;4.622;2022-08-06T00:21:19;13.60;99.90
38500;DHT22;24269;51.894;4.622;2022-08-06T00:23:44;13.70;99.90
38500;DHT22;24269;51.894;4.622;2022-08-06T00:26:10;13.70;99.90
38500;DHT22;24269;51.894;4.622;2022-08-06T00:28:36;13.70;99.90
38500;DHT22;24269;51.894;4.622;2022-08-06T00:31:03;13.70;99.90
38500;DHT22;24269;51.894;4.622;2022-08-06T00:33:29;13.60;99.90
38500;DHT22;24269;51.894;4.622;2022-08-06T00:35:55;13.70;99.90
38500;DHT22;24269;51.894;4.622;2022-08-06T00:38:21;13.60;99.90
38500;DHT22;24269;51.894;4.622;2022-08-06T00:40:48;13.60;99.90
38500;DHT22;24269;51.894;4.622;2022-08-06T00:43:13;13.60;99.90
38500;DHT22;24269;51.894;4.622;2022-08-06T00:45:39;13.60;99.90
38500;DHT22;24269;51.894;4.622;2022-08-06T00:48:05;13.60;99.90
38500;DHT22;24269;51.894;4.622;2022-08-06T00:50:31;13.60;99.90
38500;DHT22;24269;51.894;4.622;2022-08-06T00:52:59;13.50;99.90
38500;DHT22;24269;51.894;4.622;2022-08-06T00:55:25;13.50;99.90
38500;DHT22;24269;51.894;4.622;2022-08-06T00:57:51;13.50;99.90
38500;DHT22;24269;51.894;4.622;2022-08-06T01:00:16;13.50;99.90
38500;DHT22;24269;51.894;4.622;2022-08-06T01:02:42;13.50;99.90
38500;DHT22;24269;51.894;4.622;2022-08-06T01:05:08;13.50;99.90
38500;DHT22;24269;51.894;4.622;2022-08-06T01:07:33;13.50;99.90
38500;DHT22;24269;51.894;4.622;2022-08-06T01:09:59;13.40;99.90
38500;DHT22;24269;51.894;4.622;2022-08-06T01:12:27;13.40;99.90
38500;DHT22;24269;51.894;4.622;2022-08-06T01:14:53;13.40;99.90
38500;DHT22;24269;51.894;4.622;2022-08-06T01:17:21;13.40;99.90
38500;DHT22;24269;51.894;4.622;2022-08-06T01:23:11;13.30;99.90
38500;DHT22;24269;51.894;4.622;2022-08-06T01:25:55;13.30;99.90
38500;DHT22;24269;51.894;4.622;2022-08-06T01:28:28;13.30;99.90
38500;DHT22;24269;51.894;4.622;2022-08-06T01:31:06;13.30;99.90
38500;DHT22;24269;51.894;4.622;2022-08-06T01:33:37;13.30;99.90
38500;DHT22;24269;51.894;4.622;2022-08-06T01:36:04;13.30;99.90
38500;DHT22;24269;51.894;4.622;2022-08-06T01:38:49;13.30;99.90
38500;DHT22;24269;51.894;4.622;2022-08-06T01:41:19;13.30;99.90
38500;DHT22;24269;51.894;4.622;2022-08-06T01:44:28;13.30;99.90
38500;DHT22;24269;51.894;4.622;2022-08-06T01:46:59;13.30;99.90
38500;DHT22;24269;51.894;4.622;2022-08-06T01:49:29;13.30;99.90
38500;DHT22;24269;51.894;4.622;2022-08-06T01:51:57;13.30;99.90
38500;DHT22;24269;51.894;4.622;2022-08-06T01:54:25;13.30;99.90
38500;DHT22;24269;51.894;4.622;2022-08-06T01:56:52;13.30;99.90
38500;DHT22;24269;51.894;4.622;2022-08-06T01:59:23;13.30;99.90
38500;DHT22;24269;51.894;4.622;2022-08-06T02:01:54;13.30;99.90
38500;DHT22;24269;51.894;4.622;2022-08-06T02:04:24;13.30;99.90
38500;DHT22;24269;51.894;4.622;2022-08-06T02:06:51;13.30;99.90
38500;DHT22;24269;51.894;4.622;2022-08-06T02:09:20;13.20;99.90
38500;DHT22;24269;51.894;4.622;2022-08-06T02:12:10;13.20;99.90
38500;DHT22;24269;51.894;4.622;2022-08-06T02:14:45;13.20;99.90
38500;DHT22;24269;51.894;4.622;2022-08-06T02:17:14;13.20;99.90
38500;DHT22;24269;51.894;4.622;2022-08-06T02:19:46;13.30;99.90
38500;DHT22;24269;51.894;4.622;2022-08-06T02:22:13;13.30;99.90
38500;DHT22;24269;51.894;4.622;2022-08-06T02:24:38;13.20;99.90
38500;DHT22;24269;51.894;4.622;2022-08-06T02:27:05;13.30;99.90
38500;DHT22;24269;51.894;4.622;2022-08-06T02:29:33;13.30;99.90
38500;DHT22;24269;51.894;4.622;2022-08-06T02:31:59;13.30;99.90
38500;DHT22;24269;51.894;4.622;2022-08-06T02:34:25;13.20;99.90
38500;DHT22;24269;51.894;4.622;2022-08-06T02:37:19;13.20;99.90
38500;DHT22;24269;51.894;4.622;2022-08-06T02:39:49;13.20;99.90
38500;DHT22;24269;51.894;4.622;2022-08-06T02:42:22;13.20;99.90
38500;DHT22;24269;51.894;4.622;2022-08-06T02:50:43;13.20;99.90
38500;DHT22;24269;51.894;4.622;2022-08-06T02:53:15;13.30;99.90
38500;DHT22;24269;51.894;4.622;2022-08-06T02:55:48;13.30;99.90
38500;DHT22;24269;51.894;4.622;2022-08-06T02:58:40;13.30;99.90
38500;DHT22;24269;51.894;4.622;2022-08-06T03:01:12;13.40;99.90
38500;DHT22;24269;51.894;4.622;2022-08-06T03:03:41;13.40;99.90
38500;DHT22;24269;51.894;4.622;2022-08-06T03:06:08;13.50;99.90
38500;DHT22;24269;51.894;4.622;2022-08-06T03:08:35;13.50;99.90
38500;DHT22;24269;51.894;4.622;2022-08-06T03:11:02;13.50;99.90
38500;DHT22;24269;51.894;4.622;2022-08-06T03:13:30;13.50;99.90
38500;DHT22;24269;51.894;4.622;2022-08-06T03:15:58;13.50;99.90
38500;DHT22;24269;51.894;4.622;2022-08-06T03:18:26;13.50;99.90
38500;DHT22;24269;51.894;4.622;2022-08-06T03:20:53;13.50;99.90
38500;DHT22;24269;51.894;4.622;2022-08-06T03:23:19;13.50;99.90
38500;DHT22;24269;51.894;4.622;2022-08-06T03:25:46;13.50;99.90
38500;DHT22;24269;51.894;4.622;2022-08-06T03:28:14;13.40;99.90
38500;DHT22;24269;51.894;4.622;2022-08-06T03:30:41;13.40;99.90
38500;DHT22;24269;51.894;4.622;2022-08-06T03:33:12;13.40;99.90
38500;DHT22;24269;51.894;4.622;2022-08-06T03:35:39;13.40;99.90
38500;DHT22;24269;51.894;4.622;2022-08-06T03:38:07;13.30;99.90
38500;DHT22;24269;51.894;4.622;2022-08-06T03:40:35;13.30;99.90
38500;DHT22;24269;51.894;4.622;2022-08-06T03:43:01;13.30;99.90
38500;DHT22;24269;51.894;4.622;2022-08-06T03:45:27;13.20;99.90
38500;DHT22;24269;51.894;4.622;2022-08-06T03:47:55;13.20;99.90
38500;DHT22;24269;51.894;4.622;2022-08-06T03:50:30;13.10;99.90
38500;DHT22;24269;51.894;4.622;2022-08-06T03:53:02;13.10;99.90
38500;DHT22;24269;51.894;4.622;2022-08-06T03:55:31;13.10;99.90
38500;DHT22;24269;51.894;4.622;2022-08-06T03:58:00;13.10;99.90
38500;DHT22;24269;51.894;4.622;2022-08-06T04:00:31;13.00;99.90
38500;DHT22;24269;51.894;4.622;2022-08-06T04:02:58;13.10;99.90
38500;DHT22;24269;51.894;4.622;2022-08-06T04:05:28;13.10;99.90
38500;DHT22;24269;51.894;4.622;2022-08-06T04:07:57;13.10;99.90
38500;DHT22;24269;51.894;4.622;2022-08-06T04:10:44;13.00;99.90
38500;DHT22;24269;51.894;4.622;2022-08-06T04:13:13;13.00;99.90
38500;DHT22;24269;51.894;4.622;2022-08-06T04:15:41;13.00;99.90
38500;DHT22;24269;51.894;4.622;2022-08-06T04:18:09;13.00;99.90
38500;DHT22;24269;51.894;4.622;2022-08-06T04:20:35;12.90;99.90
38500;DHT22;24269;51.894;4.622;2022-08-06T04:23:01;12.90;99.90
38500;DHT22;24269;51.894;4.622;2022-08-06T04:25:31;12.90;99.90
38500;DHT22;24269;51.894;4.622;2022-08-06T04:27:59;12.90;99.90
38500;DHT22;24269;51.894;4.622;2022-08-06T04:30:26;12.90;99.90
38500;DHT22;24269;51.894;4.622;2022-08-06T04:32:53;12.90;99.90
38500;DHT22;24269;51.894;4.622;2022-08-06T04:35:19;12.90;99.90
38500;DHT22;24269;51.894;4.622;2022-08-06T04:37:46;13.00;99.90
38500;DHT22;24269;51.894;4.622;2022-08-06T04:40:12;12.90;99.90
38500;DHT22;24269;51.894;4.622;2022-08-06T04:42:38;12.90;99.90
38500;DHT22;24269;51.894;4.622;2022-08-06T04:45:07;13.00;99.90
38500;DHT22;24269;51.894;4.622;2022-08-06T04:47:34;12.90;99.90
38500;DHT22;24269;51.894;4.622;2022-08-06T04:50:00;13.00;99.90
38500;DHT22;24269;51.894;4.622;2022-08-06T04:52:27;13.00;99.90
38500;DHT22;24269;51.894;4.622;2022-08-06T04:54:53;13.00;99.90
38500;DHT22;24269;51.894;4.622;2022-08-06T04:57:18;13.00;99.90
38500;DHT22;24269;51.894;4.622;2022-08-06T04:59:44;13.00;99.90
38500;DHT22;24269;51.894;4.622;2022-08-06T05:02:10;13.00;99.90
38500;DHT22;24269;51.894;4.622;2022-08-06T05:04:37;13.00;99.90
38500;DHT22;24269;51.894;4.622;2022-08-06T05:07:19;13.00;99.90
38500;DHT22;24269;51.894;4.622;2022-08-06T05:09:46;13.00;99.90
38500;DHT22;24269;51.894;4.622;2022-08-06T05:12:27;13.00;99.90
38500;DHT22;24269;51.894;4.622;2022-08-06T05:17:32;13.00;99.90
38500;DHT22;24269;51.894;4.622;2022-08-06T05:20:11;13.00;99.90
38500;DHT22;24269;51.894;4.622;2022-08-06T05:22:39;13.10;99.90
38500;DHT22;24269;51.894;4.622;2022-08-06T05:25:07;13.10;99.90
38500;DHT22;24269;51.894;4.622;2022-08-06T05:27:33;13.10;99.90
38500;DHT22;24269;51.894;4.622;2022-08-06T05:29:59;13.20;99.90
38500;DHT22;24269;51.894;4.622;2022-08-06T05:32:26;13.20;99.90
38500;DHT22;24269;51.894;4.622;2022-08-06T05:34:51;13.20;99.90
38500;DHT22;24269;51.894;4.622;2022-08-06T05:37:17;13.30;99.90
38500;DHT22;24269;51.894;4.622;2022-08-06T05:39:42;13.30;99.90
38500;DHT22;24269;51.894;4.622;2022-08-06T05:42:08;13.40;99.90
38500;DHT22;24269;51.894;4.622;2022-08-06T05:44:34;13.40;99.90
38500;DHT22;24269;51.894;4.622;2022-08-06T05:47:15;13.50;99.90
38500;DHT22;24269;51.894;4.622;2022-08-06T05:49:49;13.50;99.90
38500;DHT22;24269;51.894;4.622;2022-08-06T05:55:30;13.60;99.90
38500;DHT22;24269;51.894;4.622;2022-08-06T05:58:01;13.70;99.90
38500;DHT22;24269;51.894;4.622;2022-08-06T06:00:30;13.70;99.90
38500;DHT22;24269;51.894;4.622;2022-08-06T06:02:59;13.80;99.90
38500;DHT22;24269;51.894;4.622;2022-08-06T06:05:25;13.80;99.90
38500;DHT22;24269;51.894;4.622;2022-08-06T06:07:52;13.90;99.90
38500;DHT22;24269;51.894;4.622;2022-08-06T06:10:22;14.00;99.90
38500;DHT22;24269;51.894;4.622;2022-08-06T06:12:48;14.00;99.90
38500;DHT22;24269;51.894;4.622;2022-08-06T06:15:17;14.10;99.90
38500;DHT22;24269;51.894;4.622;2022-08-06T06:23:09;14.50;99.90
38500;DHT22;24269;51.894;4.622;2022-08-06T06:28:27;14.70;99.90
38500;DHT22;24269;51.894;4.622;2022-08-06T06:31:18;14.70;99.90
38500;DHT22;24269;51.894;4.622;2022-08-06T06:34:09;14.80;99.90
38500;DHT22;24269;51.894;4.622;2022-08-06T06:39:45;15.00;99.90
38500;DHT22;24269;51.894;4.622;2022-08-06T06:42:17;15.00;99.90
38500;DHT22;24269;51.894;4.622;2022-08-06T06:45:07;15.10;99.90
38500;DHT22;24269;51.894;4.622;2022-08-06T06:50:20;15.40;99.90
38500;DHT22;24269;51.894;4.622;2022-08-06T06:52:49;15.50;99.90
38500;DHT22;24269;51.894;4.622;2022-08-06T06:55:33;15.60;99.90
38500;DHT22;24269;51.894;4.622;2022-08-06T06:58:10;15.70;99.90
38500;DHT22;24269;51.894;4.622;2022-08-06T07:00:39;15.80;99.90
38500;DHT22;24269;51.894;4.622;2022-08-06T07:03:06;15.90;99.90
38500;DHT22;24269;51.894;4.622;2022-08-06T07:05:33;15.90;99.90
38500;DHT22;24269;51.894;4.622;2022-08-06T07:08:03;16.10;99.90
38500;DHT22;24269;51.894;4.622;2022-08-06T07:10:30;16.10;99.90
38500;DHT22;24269;51.894;4.622;2022-08-06T07:12:57;16.20;99.90
38500;DHT22;24269;51.894;4.622;2022-08-06T07:15:25;16.30;99.90
38500;DHT22;24269;51.894;4.622;2022-08-06T07:17:52;16.40;99.90
38500;DHT22;24269;51.894;4.622;2022-08-06T07:20:23;16.40;99.90
38500;DHT22;24269;51.894;4.622;2022-08-06T07:22:51;16.50;99.90
38500;DHT22;24269;51.894;4.622;2022-08-06T07:25:17;16.60;99.90
38500;DHT22;24269;51.894;4.622;2022-08-06T07:27:46;16.60;99.90
38500;DHT22;24269;51.894;4.622;2022-08-06T07:30:15;16.70;99.90
38500;DHT22;24269;51.894;4.622;2022-08-06T07:32:43;16.90;99.90
38500;DHT22;24269;51.894;4.622;2022-08-06T07:35:10;17.10;99.90
38500;DHT22;24269;51.894;4.622;2022-08-06T07:37:37;17.20;99.90
38500;DHT22;24269;51.894;4.622;2022-08-06T07:40:07;17.30;99.90
38500;DHT22;24269;51.894;4.622;2022-08-06T07:42:36;17.50;99.90
38500;DHT22;24269;51.894;4.622;2022-08-06T07:45:03;17.60;99.90
38500;DHT22;24269;51.894;4.622;2022-08-06T07:47:35;17.80;99.90
38500;DHT22;24269;51.894;4.622;2022-08-06T07:50:05;17.90;99.90
38500;DHT22;24269;51.894;4.622;2022-08-06T07:52:33;18.00;99.90
38500;DHT22;24269;51.894;4.622;2022-08-06T07:54:59;18.20;99.90
38500;DHT22;24269;51.894;4.622;2022-08-06T07:57:26;18.40;99.90
38500;DHT22;24269;51.894;4.622;2022-08-06T07:59:53;18.70;99.90
38500;DHT22;24269;51.894;4.622;2022-08-06T08:02:19;18.90;99.90
38500;DHT22;24269;51.894;4.622;2022-08-06T08:04:46;18.90;99.90
38500;DHT22;24269;51.894;4.622;2022-08-06T08:07:30;19.20;99.90
38500;DHT22;24269;51.894;4.622;2022-08-06T08:09:58;19.30;99.90
38500;DHT22;24269;51.894;4.622;2022-08-06T08:12:24;19.40;99.90
38500;DHT22;24269;51.894;4.622;2022-08-06T08:14:52;19.60;99.90
38500;DHT22;24269;51.894;4.622;2022-08-06T08:17:17;19.60;99.90
38500;DHT22;24269;51.894;4.622;2022-08-06T08:19:43;19.70;99.90
38500;DHT22;24269;51.894;4.622;2022-08-06T08:22:14;19.60;99.90
38500;DHT22;24269;51.894;4.622;2022-08-06T08:24:42;19.80;99.90
38500;DHT22;24269;51.894;4.622;2022-08-06T08:27:09;20.00;99.90
38500;DHT22;24269;51.894;4.622;2022-08-06T08:29:36;20.20;99.90
38500;DHT22;24269;51.894;4.622;2022-08-06T08:32:04;20.10;99.90
38500;DHT22;24269;51.894;4.622;2022-08-06T08:34:29;20.10;99.90
38500;DHT22;24269;51.894;4.622;2022-08-06T08:36:56;20.20;99.90
38500;DHT22;24269;51.894;4.622;2022-08-06T08:39:22;20.20;99.90
38500;DHT22;24269;51.894;4.622;2022-08-06T08:41:52;20.30;99.90
38500;DHT22;24269;51.894;4.622;2022-08-06T08:44:25;20.50;99.90
38500;DHT22;24269;51.894;4.622;2022-08-06T08:46:55;20.40;99.90
38500;DHT22;24269;51.894;4.622;2022-08-06T08:49:52;20.50;99.90
38500;DHT22;24269;51.894;4.622;2022-08-06T08:52:26;20.60;99.90
38500;DHT22;24269;51.894;4.622;2022-08-06T08:54:55;20.70;99.90
38500;DHT22;24269;51.894;4.622;2022-08-06T08:57:23;20.80;99.90
38500;DHT22;24269;51.894;4.622;2022-08-06T08:59:49;21.00;99.90
38500;DHT22;24269;51.894;4.622;2022-08-06T09:02:15;21.10;99.90
38500;DHT22;24269;51.894;4.622;2022-08-06T09:04:44;21.10;99.90
38500;DHT22;24269;51.894;4.622;2022-08-06T09:07:10;21.20;99.90
38500;DHT22;24269;51.894;4.622;2022-08-06T09:09:37;21.20;99.90
38500;DHT22;24269;51.894;4.622;2022-08-06T09:12:06;21.20;99.90
38500;DHT22;24269;51.894;4.622;2022-08-06T09:14:34;21.30;99.90
38500;DHT22;24269;51.894;4.622;2022-08-06T09:17:01;21.40;99.90
38500;DHT22;24269;51.894;4.622;2022-08-06T09:19:27;21.40;99.90
38500;DHT22;24269;51.894;4.622;2022-08-06T09:21:58;21.40;99.90
38500;DHT22;24269;51.894;4.622;2022-08-06T09:24:25;21.30;99.90
38500;DHT22;24269;51.894;4.622;2022-08-06T09:27:11;21.30;99.90
38500;DHT22;24269;51.894;4.622;2022-08-06T09:29:56;21.40;99.90
38500;DHT22;24269;51.894;4.622;2022-08-06T09:32:39;21.60;99.90
38500;DHT22;24269;51.894;4.622;2022-08-06T09:35:26;22.00;99.90
38500;DHT22;24269;51.894;4.622;2022-08-06T09:38:06;22.20;99.90
38500;DHT22;24269;51.894;4.622;2022-08-06T09:40:33;22.20;99.90
38500;DHT22;24269;51.894;4.622;2022-08-06T09:42:59;22.20;99.90
38500;DHT22;24269;51.894;4.622;2022-08-06T09:45:26;22.20;99.90
38500;DHT22;24269;51.894;4.622;2022-08-06T09:48:06;22.30;99.90
38500;DHT22;24269;51.894;4.622;2022-08-06T09:50:43;22.30;99.90
38500;DHT22;24269;51.894;4.622;2022-08-06T09:53:09;22.30;99.90
38500;DHT22;24269;51.894;4.622;2022-08-06T09:55:35;22.40;99.90
38500;DHT22;24269;51.894;4.622;2022-08-06T09:58:01;22.50;99.90
38500;DHT22;24269;51.894;4.622;2022-08-06T10:03:39;22.30;99.90
38500;DHT22;24269;51.894;4.622;2022-08-06T10:06:15;22.00;99.90
38500;DHT22;24269;51.894;4.622;2022-08-06T10:08:43;22.00;99.90
38500;DHT22;24269;51.894;4.622;2022-08-06T10:11:09;22.10;99.90
38500;DHT22;24269;51.894;4.622;2022-08-06T10:13:38;22.30;99.90
38500;DHT22;24269;51.894;4.622;2022-08-06T10:16:17;22.60;99.90
38500;DHT22;24269;51.894;4.622;2022-08-06T10:18:45;23.00;99.90
38500;DHT22;24269;51.894;4.622;2022-08-06T10:21:20;23.30;99.90
38500;DHT22;24269;51.894;4.622;2022-08-06T10:23:53;23.10;99.90
38500;DHT22;24269;51.894;4.622;2022-08-06T10:26:27;23.40;99.90
38500;DHT22;24269;51.894;4.622;2022-08-06T10:28:53;23.50;99.90
38500;DHT22;24269;51.894;4.622;2022-08-06T10:31:20;23.40;99.90
38500;DHT22;24269;51.894;4.622;2022-08-06T10:34:06;23.40;99.90
38500;DHT22;24269;51.894;4.622;2022-08-06T10:36:43;23.60;99.90
38500;DHT22;24269;51.894;4.622;2022-08-06T10:39:09;23.80;99.90
38500;DHT22;24269;51.894;4.622;2022-08-06T10:41:35;23.90;99.90
38500;DHT22;24269;51.894;4.622;2022-08-06T10:44:04;23.80;99.20
38500;DHT22;24269;51.894;4.622;2022-08-06T10:46:31;23.80;99.90
38500;DHT22;24269;51.894;4.622;2022-08-06T10:48:57;23.80;99.90
38500;DHT22;24269;51.894;4.622;2022-08-06T10:51:24;23.60;99.90
38500;DHT22;24269;51.894;4.622;2022-08-06T10:53:51;23.50;99.90
38500;DHT22;24269;51.894;4.622;2022-08-06T10:56:18;23.20;99.90
38500;DHT22;24269;51.894;4.622;2022-08-06T10:58:44;23.10;99.90
38500;DHT22;24269;51.894;4.622;2022-08-06T11:04:34;23.70;99.90
38500;DHT22;24269;51.894;4.622;2022-08-06T11:12:49;24.20;99.90
38500;DHT22;24269;51.894;4.622;2022-08-06T11:15:17;24.00;99.90
38500;DHT22;24269;51.894;4.622;2022-08-06T11:17:52;23.80;99.90
38500;DHT22;24269;51.894;4.622;2022-08-06T11:23:21;23.50;99.90
38500;DHT22;24269;51.894;4.622;2022-08-06T11:25:57;23.30;99.90
38500;DHT22;24269;51.894;4.622;2022-08-06T11:31:00;23.00;99.90
38500;DHT22;24269;51.894;4.622;2022-08-06T11:35:59;22.80;99.60
38500;DHT22;24269;51.894;4.622;2022-08-06T11:46:18;23.90;99.90
38500;DHT22;24269;51.894;4.622;2022-08-06T11:49:20;24.30;99.90
38500;DHT22;24269;51.894;4.622;2022-08-06T11:54:25;24.40;98.60
38500;DHT22;24269;51.894;4.622;2022-08-06T12:02:12;25.00;98.20
38500;DHT22;24269;51.894;4.622;2022-08-06T12:12:39;26.00;96.60
38500;DHT22;24269;51.894;4.622;2022-08-06T12:22:58;25.40;96.30
38500;DHT22;24269;51.894;4.622;2022-08-06T12:25:35;25.30;95.40
38500;DHT22;24269;51.894;4.622;2022-08-06T12:28:01;25.10;95.90
38500;DHT22;24269;51.894;4.622;2022-08-06T12:30:39;24.90;96.10
38500;DHT22;24269;51.894;4.622;2022-08-06T12:33:06;24.50;96.70
38500;DHT22;24269;51.894;4.622;2022-08-06T12:35:32;24.30;97.20
38500;DHT22;24269;51.894;4.622;2022-08-06T12:37:58;24.20;97.70
38500;DHT22;24269;51.894;4.622;2022-08-06T12:40:23;24.10;96.70
38500;DHT22;24269;51.894;4.622;2022-08-06T12:42:50;24.30;97.00
38500;DHT22;24269;51.894;4.622;2022-08-06T12:45:25;24.70;97.20
38500;DHT22;24269;51.894;4.622;2022-08-06T12:47:59;25.10;96.50
38500;DHT22;24269;51.894;4.622;2022-08-06T12:50:25;25.50;96.90
38500;DHT22;24269;51.894;4.622;2022-08-06T12:53:06;25.90;96.30
38500;DHT22;24269;51.894;4.622;2022-08-06T12:55:53;26.10;96.50
38500;DHT22;24269;51.894;4.622;2022-08-06T12:58:33;26.30;95.90
38500;DHT22;24269;51.894;4.622;2022-08-06T13:01:00;26.60;95.00
38500;DHT22;24269;51.894;4.622;2022-08-06T13:03:27;27.00;95.20
38500;DHT22;24269;51.894;4.622;2022-08-06T13:06:02;27.10;94.10
38500;DHT22;24269;51.894;4.622;2022-08-06T13:08:29;27.30;93.50
38500;DHT22;24269;51.894;4.622;2022-08-06T13:10:56;27.70;93.90
38500;DHT22;24269;51.894;4.622;2022-08-06T13:13:37;28.00;93.20
38500;DHT22;24269;51.894;4.622;2022-08-06T13:16:09;28.00;93.00
38500;DHT22;24269;51.894;4.622;2022-08-06T13:18:37;27.60;92.70
38500;DHT22;24269;51.894;4.622;2022-08-06T13:21:03;27.80;92.10
38500;DHT22;24269;51.894;4.622;2022-08-06T13:23:33;27.20;91.30
38500;DHT22;24269;51.894;4.622;2022-08-06T13:26:11;26.70;90.90
38500;DHT22;24269;51.894;4.622;2022-08-06T13:28:37;26.60;93.00
38500;DHT22;24269;51.894;4.622;2022-08-06T13:31:17;26.90;91.80
38500;DHT22;24269;51.894;4.622;2022-08-06T13:33:42;27.40;91.00
38500;DHT22;24269;51.894;4.622;2022-08-06T13:36:09;27.70;90.10
38500;DHT22;24269;51.894;4.622;2022-08-06T13:38:36;27.90;90.20
38500;DHT22;24269;51.894;4.622;2022-08-06T13:41:03;27.80;90.80
38500;DHT22;24269;51.894;4.622;2022-08-06T13:43:40;27.70;90.70
38500;DHT22;24269;51.894;4.622;2022-08-06T13:46:12;28.00;90.30
38500;DHT22;24269;51.894;4.622;2022-08-06T13:48:48;28.20;90.50
38500;DHT22;24269;51.894;4.622;2022-08-06T13:51:15;28.60;90.30
38500;DHT22;24269;51.894;4.622;2022-08-06T13:53:42;28.50;88.20
38500;DHT22;24269;51.894;4.622;2022-08-06T13:56:07;28.30;88.90
38500;DHT22;24269;51.894;4.622;2022-08-06T13:58:33;27.90;86.50
38500;DHT22;24269;51.894;4.622;2022-08-06T14:00:59;27.80;90.40
38500;DHT22;24269;51.894;4.622;2022-08-06T14:03:27;28.00;88.90
38500;DHT22;24269;51.894;4.622;2022-08-06T14:05:53;27.70;86.30
38500;DHT22;24269;51.894;4.622;2022-08-06T14:08:19;27.90;88.90
38500;DHT22;24269;51.894;4.622;2022-08-06T14:10:44;28.30;89.50
38500;DHT22;24269;51.894;4.622;2022-08-06T14:13:13;28.70;83.30
38500;DHT22;24269;51.894;4.622;2022-08-06T14:15:48;29.00;83.60
38500;DHT22;24269;51.894;4.622;2022-08-06T14:18:18;29.10;86.60
38500;DHT22;24269;51.894;4.622;2022-08-06T14:20:44;28.20;86.20
38500;DHT22;24269;51.894;4.622;2022-08-06T14:23:11;28.10;86.30
38500;DHT22;24269;51.894;4.622;2022-08-06T14:25:37;28.80;83.20
38500;DHT22;24269;51.894;4.622;2022-08-06T14:28:03;29.30;81.80
38500;DHT22;24269;51.894;4.622;2022-08-06T14:30:30;29.80;84.00
38500;DHT22;24269;51.894;4.622;2022-08-06T14:32:55;30.50;83.70
38500;DHT22;24269;51.894;4.622;2022-08-06T14:35:21;30.70;80.10
38500;DHT22;24269;51.894;4.622;2022-08-06T14:37:47;30.60;79.20
38500;DHT22;24269;51.894;4.622;2022-08-06T14:40:14;31.10;79.20
38500;DHT22;24269;51.894;4.622;2022-08-06T14:42:40;31.10;75.90
38500;DHT22;24269;51.894;4.622;2022-08-06T14:45:24;31.20;77.00
38500;DHT22;24269;51.894;4.622;2022-08-06T14:47:50;31.90;76.40
38500;DHT22;24269;51.894;4.622;2022-08-06T14:50:17;32.10;76.00
38500;DHT22;24269;51.894;4.622;2022-08-06T14:52:43;31.90;75.10
38500;DHT22;24269;51.894;4.622;2022-08-06T14:55:10;32.00;73.50
38500;DHT22;24269;51.894;4.622;2022-08-06T14:57:36;32.00;72.40
38500;DHT22;24269;51.894;4.622;2022-08-06T15:00:06;31.80;71.20
38500;DHT22;24269;51.894;4.622;2022-08-06T15:02:33;31.80;70.80
38500;DHT22;24269;51.894;4.622;2022-08-06T15:04:59;30.10;71.90
38500;DHT22;24269;51.894;4.622;2022-08-06T15:07:25;29.00;75.70
38500;DHT22;24269;51.894;4.622;2022-08-06T15:09:51;29.40;76.50
38500;DHT22;24269;51.894;4.622;2022-08-06T15:12:17;30.10;73.30
38500;DHT22;24269;51.894;4.622;2022-08-06T15:14:43;31.10;73.80
38500;DHT22;24269;51.894;4.622;2022-08-06T15:17:09;32.00;73.60
38500;DHT22;24269;51.894;4.622;2022-08-06T15:19:34;32.60;71.40
38500;DHT22;24269;51.894;4.622;2022-08-06T15:22:00;32.80;68.40
38500;DHT22;24269;51.894;4.622;2022-08-06T15:24:26;32.30;69.60
38500;DHT22;24269;51.894;4.622;2022-08-06T15:26:53;32.00;68.10
38500;DHT22;24269;51.894;4.622;2022-08-06T15:29:20;31.90;69.30
38500;DHT22;24269;51.894;4.622;2022-08-06T15:31:46;32.10;70.10
38500;DHT22;24269;51.894;4.622;2022-08-06T15:34:13;32.10;68.20
38500;DHT22;24269;51.894;4.622;2022-08-06T15:36:39;32.20;68.80
38500;DHT22;24269;51.894;4.622;2022-08-06T15:39:05;32.50;67.50
38500;DHT22;24269;51.894;4.622;2022-08-06T15:41:30;32.40;68.20
38500;DHT22;24269;51.894;4.622;2022-08-06T15:43:57;31.80;65.90
38500;DHT22;24269;51.894;4.622;2022-08-06T15:46:23;30.80;66.70
38500;DHT22;24269;51.894;4.622;2022-08-06T15:48:49;30.30;68.20
38500;DHT22;24269;51.894;4.622;2022-08-06T15:51:14;30.70;68.50
38500;DHT22;24269;51.894;4.622;2022-08-06T15:53:40;31.40;68.90
38500;DHT22;24269;51.894;4.622;2022-08-06T15:56:06;31.30;66.20
38500;DHT22;24269;51.894;4.622;2022-08-06T15:58:31;31.40;67.10
38500;DHT22;24269;51.894;4.622;2022-08-06T16:00:57;31.70;67.20
38500;DHT22;24269;51.894;4.622;2022-08-06T16:03:23;31.60;65.60
38500;DHT22;24269;51.894;4.622;2022-08-06T16:05:49;31.40;65.20
38500;DHT22;24269;51.894;4.622;2022-08-06T16:08:15;31.10;65.80
38500;DHT22;24269;51.894;4.622;2022-08-06T16:10:43;31.30;66.90
38500;DHT22;24269;51.894;4.622;2022-08-06T16:13:09;31.00;65.50
38500;DHT22;24269;51.894;4.622;2022-08-06T16:15:41;30.40;64.20
38500;DHT22;24269;51.894;4.622;2022-08-06T16:18:06;29.80;66.70
38500;DHT22;24269;51.894;4.622;2022-08-06T16:20:32;29.30;67.30
38500;DHT22;24269;51.894;4.622;2022-08-06T16:22:57;28.30;69.10
38500;DHT22;24269;51.894;4.622;2022-08-06T16:25:23;27.10;71.10
38500;DHT22;24269;51.894;4.622;2022-08-06T16:27:49;25.70;72.00
38500;DHT22;24269;51.894;4.622;2022-08-06T16:30:15;24.60;75.20
38500;DHT22;24269;51.894;4.622;2022-08-06T16:32:40;23.70;77.60
38500;DHT22;24269;51.894;4.622;2022-08-06T16:35:06;23.20;76.80
38500;DHT22;24269;51.894;4.622;2022-08-06T16:37:32;22.90;79.60
38500;DHT22;24269;51.894;4.622;2022-08-06T16:39:57;22.60;80.10
38500;DHT22;24269;51.894;4.622;2022-08-06T16:42:23;22.40;80.60
38500;DHT22;24269;51.894;4.622;2022-08-06T16:44:48;22.10;81.70
38500;DHT22;24269;51.894;4.622;2022-08-06T16:47:14;22.00;80.90
38500;DHT22;24269;51.894;4.622;2022-08-06T16:49:40;21.80;81.50
38500;DHT22;24269;51.894;4.622;2022-08-06T16:52:05;21.70;83.80
38500;DHT22;24269;51.894;4.622;2022-08-06T16:54:31;21.60;83.50
38500;DHT22;24269;51.894;4.622;2022-08-06T16:56:56;21.50;84.90
38500;DHT22;24269;51.894;4.622;2022-08-06T16:59:22;21.40;85.50
38500;DHT22;24269;51.894;4.622;2022-08-06T17:01:48;21.20;85.00
38500;DHT22;24269;51.894;4.622;2022-08-06T17:04:32;21.10;86.60